Helliar — 2EPP5 — position and weather

sailwx.info

Track history (hours):
 
Tides and Currents Weather Stations Pressure Air Temp Water Temp Dewpoint Dewpoint Depression Visibility Wind Speed Wind Dir Waves Ship Positions

Helliar

Last reported at 2016-Sep-24 17:33 UTC. Time now 2016-Sep-25 20:55 UTC.
Position N 57°31' W 001°38'.

Length 122 m; draft 5.1 m.

Type: Cargo ship. MMSI: 235087119.

Date/timePositionNaut miles runAvg speedWind from/ knotsBaromVisibWave heightAir tempDewpointWater temp
2016-Sep-24 17:33N 57°31' W 001°38'26 8.7
2016-Sep-24 14:30N 57°09' W 002°05'0 0.0
2016-Sep-24 12:33N 57°09' W 002°05'0 0.0
2016-Sep-24 10:33N 57°09' W 002°05'0 0.0
2016-Sep-24 09:33N 57°09' W 002°05'0 0.0
2016-Sep-22 12:34N 57°09' W 002°05'0 0.0
2016-Sep-20 14:31N 57°09' W 002°05'0 0.0
2016-Sep-20 13:31N 57°09' W 002°05'0 0.0
2016-Sep-20 10:31N 57°09' W 002°05'0 0.0
2016-Sep-20 08:31N 57°09' W 002°05'0 0.0
2016-Sep-20 07:31N 57°09' W 002°05'0 0.4
2016-Sep-20 06:33N 57°08' W 002°04'7911.3
2016-Sep-19 23:33N 58°27' W 002°18'39 9.7
2016-Sep-19 19:33N 58°60' W 002°58'0 0.0
2016-Sep-19 18:33N 58°60' W 002°58'8 4.0
2016-Sep-19 16:33N 58°59' W 002°43'3314.4
2016-Sep-19 14:16N 58°29' W 002°18'6413.6
2016-Sep-19 09:33N 57°28' W 001°40'2411.4
2016-Sep-19 07:30N 57°09' W 002°05'0 0.0
2016-Sep-19 06:32N 57°09' W 002°05'20 4.6
2016-Sep-19 02:07N 57°23' W 001°39'20 0.6
2016-Sep-17 13:26N 57°09' W 002°05'0 0.0
2016-Sep-17 12:29N 57°09' W 002°05'0 0.0
2016-Sep-17 10:32N 57°09' W 002°05'0 0.0
2016-Sep-17 09:29N 57°09' W 002°05'0 0.0
2016-Sep-17 08:29N 57°09' W 002°05'0 0.0
2016-Sep-17 07:29N 57°09' W 002°05'23 7.9
2016-Sep-17 04:33N 57°28' W 001°41'10 0.3
2016-Sep-16 00:11N 57°37' W 001°37'3212.1
2016-Sep-15 21:31N 57°08' W 002°04'1 0.6
2016-Sep-15 20:33N 57°09' W 002°05'0 0.0
2016-Sep-15 18:33N 57°09' W 002°05'31 2.2
2016-Sep-15 04:33N 57°36' W 001°38'  
Track history (hours):
 
Tides and Currents Weather Stations Pressure Air Temp Water Temp Dewpoint Dewpoint Depression Visibility Wind Speed Wind Dir Waves Ship Positions

Helliar

Last reported at 2016-Sep-24 17:33 UTC. Time now 2016-Sep-25 20:55 UTC.
Position N 57°31' W 001°38'.

Length 122 m; draft 5.1 m.

Type: Cargo ship. MMSI: 235087119.

Date/timePositionNaut miles runAvg speedWind from/ knotsBaromVisibWave heightAir tempDewpointWater temp
2016-Sep-24 17:33N 57°31' W 001°38'26 8.7
2016-Sep-24 14:30N 57°09' W 002°05'0 0.0
2016-Sep-24 12:33N 57°09' W 002°05'0 0.0
2016-Sep-24 10:33N 57°09' W 002°05'0 0.0
2016-Sep-24 09:33N 57°09' W 002°05'0 0.0
2016-Sep-22 12:34N 57°09' W 002°05'0 0.0
2016-Sep-20 14:31N 57°09' W 002°05'0 0.0
2016-Sep-20 13:31N 57°09' W 002°05'0 0.0
2016-Sep-20 10:31N 57°09' W 002°05'0 0.0
2016-Sep-20 08:31N 57°09' W 002°05'0 0.0
2016-Sep-20 07:31N 57°09' W 002°05'0 0.4
2016-Sep-20 06:33N 57°08' W 002°04'7911.3
2016-Sep-19 23:33N 58°27' W 002°18'39 9.7
2016-Sep-19 19:33N 58°60' W 002°58'0 0.0
2016-Sep-19 18:33N 58°60' W 002°58'8 4.0
2016-Sep-19 16:33N 58°59' W 002°43'3314.4
2016-Sep-19 14:16N 58°29' W 002°18'6413.6
2016-Sep-19 09:33N 57°28' W 001°40'2411.4
2016-Sep-19 07:30N 57°09' W 002°05'0 0.0
2016-Sep-19 06:32N 57°09' W 002°05'20 4.6
2016-Sep-19 02:07N 57°23' W 001°39'20 0.6
2016-Sep-17 13:26N 57°09' W 002°05'0 0.0
2016-Sep-17 12:29N 57°09' W 002°05'0 0.0
2016-Sep-17 10:32N 57°09' W 002°05'0 0.0
2016-Sep-17 09:29N 57°09' W 002°05'0 0.0
2016-Sep-17 08:29N 57°09' W 002°05'0 0.0
2016-Sep-17 07:29N 57°09' W 002°05'23 7.9
2016-Sep-17 04:33N 57°28' W 001°41'10 0.3
2016-Sep-16 00:11N 57°37' W 001°37'3212.1
2016-Sep-15 21:31N 57°08' W 002°04'1 0.6
2016-Sep-15 20:33N 57°09' W 002°05'0 0.0
2016-Sep-15 18:33N 57°09' W 002°05'31 2.2
2016-Sep-15 04:33N 57°36' W 001°38'  

Dump ship's entire track history